createdAt,value
2022-10-08T00:01:07.052Z,85.44
2022-10-08T00:03:36.386Z,85.61
2022-10-08T00:06:07.037Z,85.54
2022-10-08T00:08:37.237Z,85.76
2022-10-08T00:11:13.519Z,85.65
2022-10-08T00:13:41.865Z,85.89
2022-10-08T00:16:15.255Z,85.98
2022-10-08T00:18:44.270Z,86.04
2022-10-08T00:21:20.769Z,86.53
2022-10-08T00:23:49.283Z,87.15
2022-10-08T00:26:17.821Z,87.06
2022-10-08T00:28:46.178Z,87.29
2022-10-08T00:31:21.367Z,86.99
2022-10-08T00:33:53.091Z,86.40
2022-10-08T00:36:19.668Z,86.84
2022-10-08T00:38:46.331Z,86.94
2022-10-08T00:41:22.827Z,87.37
2022-10-08T00:43:53.407Z,87.49
2022-10-08T00:46:28.057Z,87.62
2022-10-08T00:49:19.630Z,87.67
2022-10-08T00:51:53.126Z,87.87
2022-10-08T00:54:21.815Z,88.32
2022-10-08T00:56:52.378Z,88.42
2022-10-08T00:59:19.877Z,88.56
2022-10-08T01:01:46.727Z,88.77
2022-10-08T01:04:15.578Z,88.42
2022-10-08T01:07:01.097Z,88.62
2022-10-08T01:09:56.903Z,87.97
2022-10-08T01:12:45.030Z,88.18
2022-10-08T01:15:23.545Z,88.42
2022-10-08T01:18:06.852Z,88.15
2022-10-08T01:20:58.912Z,88.39
2022-10-08T01:23:32.827Z,88.02
2022-10-08T01:26:17.469Z,87.58
2022-10-08T01:28:52.427Z,88.27
2022-10-08T01:31:26.096Z,87.39
2022-10-08T01:34:07.919Z,87.54
2022-10-08T01:36:41.104Z,87.29
2022-10-08T01:39:13.338Z,87.44
2022-10-08T01:41:42.256Z,87.51
2022-10-08T01:44:15.211Z,87.57
2022-10-08T01:46:46.076Z,87.70
2022-10-08T01:49:18.491Z,88.08
2022-10-08T01:51:52.860Z,88.22
2022-10-08T01:54:23.012Z,88.18
2022-10-08T01:56:51.786Z,88.29
2022-10-08T01:59:24.395Z,88.90
2022-10-08T02:02:10.460Z,88.47
2022-10-08T02:04:37.745Z,88.47
2022-10-08T02:07:19.058Z,88.82
2022-10-08T02:09:51.308Z,88.57
2022-10-08T02:12:18.443Z,88.65
2022-10-08T02:14:49.379Z,88.74
2022-10-08T02:17:49.990Z,89.15
2022-10-08T02:20:22.537Z,89.22
2022-10-08T02:23:09.511Z,89.27
2022-10-08T02:25:41.578Z,89.39
2022-10-08T02:28:30.445Z,89.62
2022-10-08T02:31:26.855Z,89.39
2022-10-08T02:34:06.955Z,89.67
2022-10-08T02:36:40.831Z,89.64
2022-10-08T02:39:10.169Z,89.92
2022-10-08T02:41:44.648Z,89.35
2022-10-08T02:44:23.115Z,89.72
2022-10-08T02:46:54.139Z,89.40
2022-10-08T02:49:29.415Z,89.22
2022-10-08T02:52:01.628Z,89.69
2022-10-08T02:54:33.699Z,89.98
2022-10-08T02:57:11.704Z,89.99
2022-10-08T02:59:38.189Z,90.03
2022-10-08T03:02:05.860Z,90.28
2022-10-08T03:04:41.039Z,90.52
2022-10-08T03:07:08.464Z,90.62
2022-10-08T03:09:39.611Z,90.69
2022-10-08T03:12:07.100Z,90.95
2022-10-08T03:14:37.795Z,90.99
2022-10-08T03:17:06.792Z,90.79
2022-10-08T03:19:34.521Z,90.97
2022-10-08T03:22:02.237Z,91.19
2022-10-08T03:24:29.121Z,91.08
2022-10-08T03:26:55.643Z,91.36
2022-10-08T03:29:22.288Z,91.09
2022-10-08T03:31:49.317Z,91.04
2022-10-08T03:34:16.211Z,91.32
2022-10-08T03:36:42.908Z,91.49
2022-10-08T03:39:11.499Z,91.34
2022-10-08T03:41:38.576Z,91.58
2022-10-08T03:44:09.281Z,91.24
2022-10-08T03:46:35.840Z,91.35
2022-10-08T03:49:02.373Z,91.09
2022-10-08T03:51:28.909Z,91.40
2022-10-08T03:53:55.474Z,91.25
2022-10-08T03:56:24.894Z,91.47
2022-10-08T03:58:56.720Z,91.94
2022-10-08T04:01:24.824Z,91.94
2022-10-08T04:03:51.523Z,91.84
2022-10-08T04:06:18.492Z,91.94
2022-10-08T04:08:45.387Z,91.63
2022-10-08T04:11:14.545Z,91.92
2022-10-08T04:13:41.995Z,91.71
2022-10-08T04:16:14.449Z,92.22
2022-10-08T04:18:41.682Z,92.12
2022-10-08T04:21:11.432Z,92.15
2022-10-08T04:23:40.128Z,91.96
2022-10-08T04:26:08.510Z,92.14
2022-10-08T04:28:40.200Z,92.29
2022-10-08T04:31:10.289Z,92.42
2022-10-08T04:33:37.522Z,92.64
2022-10-08T04:36:08.630Z,92.74
2022-10-08T04:38:35.184Z,92.76
2022-10-08T04:41:10.191Z,92.79
2022-10-08T04:43:38.854Z,93.05
2022-10-08T04:46:07.522Z,92.72
2022-10-08T04:48:34.202Z,92.93
2022-10-08T04:51:05.810Z,92.67
2022-10-08T04:53:35.080Z,92.78
2022-10-08T04:56:28.976Z,92.94
2022-10-08T04:58:56.943Z,92.73
2022-10-08T05:01:23.959Z,92.93
2022-10-08T05:03:52.603Z,92.81
2022-10-08T05:06:22.231Z,92.91
2022-10-08T05:08:49.369Z,92.62
2022-10-08T05:11:17.106Z,92.82
2022-10-08T05:13:43.917Z,92.82
2022-10-08T05:16:12.692Z,92.82
2022-10-08T05:18:41.045Z,92.73
2022-10-08T05:21:13.271Z,92.99
2022-10-08T05:23:42.588Z,93.30
2022-10-08T05:26:12.191Z,93.56
2022-10-08T05:28:38.770Z,93.82
2022-10-08T05:31:05.464Z,93.62
2022-10-08T05:33:31.990Z,93.93
2022-10-08T05:36:03.261Z,93.89
2022-10-08T05:38:34.670Z,94.06
2022-10-08T05:41:29.293Z,93.76
2022-10-08T05:43:57.011Z,93.58
2022-10-08T05:46:28.562Z,93.28
2022-10-08T05:48:57.097Z,93.42
2022-10-08T05:51:23.950Z,93.22
2022-10-08T05:53:51.942Z,93.40
2022-10-08T05:56:20.751Z,93.61
2022-10-08T05:58:48.336Z,93.62
2022-10-08T06:01:21.084Z,93.94
2022-10-08T06:03:51.682Z,94.18
2022-10-08T06:06:19.032Z,94.54
2022-10-08T06:08:45.883Z,94.42
2022-10-08T06:11:12.932Z,94.57
2022-10-08T06:13:39.583Z,94.67
2022-10-08T06:16:08.990Z,94.22
2022-10-08T06:18:40.675Z,94.19
2022-10-08T06:21:15.551Z,94.18
2022-10-08T06:23:50.369Z,94.32
2022-10-08T06:26:22.025Z,94.10
2022-10-08T06:28:49.424Z,94.15
2022-10-08T06:31:16.926Z,94.14
2022-10-08T06:33:44.021Z,94.00
2022-10-08T06:36:28.947Z,93.96
2022-10-08T06:38:58.091Z,94.39
2022-10-08T06:41:25.732Z,94.36
2022-10-08T06:43:52.599Z,94.49
2022-10-08T06:46:20.118Z,94.57
2022-10-08T06:48:46.855Z,94.67
2022-10-08T06:51:16.411Z,94.69
2022-10-08T06:53:44.811Z,94.64
2022-10-08T06:56:18.172Z,94.83
2022-10-08T06:58:45.142Z,94.61
2022-10-08T07:01:22.426Z,94.65
2022-10-08T07:03:54.486Z,94.56
2022-10-08T07:06:21.355Z,94.50
2022-10-08T07:08:52.301Z,94.59
2022-10-08T07:11:19.404Z,94.87
2022-10-08T07:13:46.067Z,94.46
2022-10-08T07:16:19.623Z,94.84
2022-10-08T07:18:48.554Z,94.79
2022-10-08T07:21:16.810Z,94.47
2022-10-08T07:23:43.347Z,93.95
2022-10-08T07:26:15.853Z,93.87
2022-10-08T07:28:48.268Z,93.55
2022-10-08T07:31:17.938Z,92.71
2022-10-08T07:33:44.483Z,91.47
2022-10-08T07:36:19.204Z,90.65
2022-10-08T07:38:45.896Z,89.72
2022-10-08T07:41:12.956Z,90.04
2022-10-08T07:43:41.319Z,90.22
2022-10-08T07:46:09.792Z,89.49
2022-10-08T07:48:36.654Z,89.70
2022-10-08T07:51:11.766Z,89.43
2022-10-08T07:53:39.666Z,88.70
2022-10-08T07:56:07.191Z,89.43
2022-10-08T07:58:33.717Z,88.35
2022-10-08T08:01:03.843Z,87.62
2022-10-08T08:03:31.061Z,87.52
2022-10-08T08:06:12.549Z,85.42
2022-10-08T08:08:40.799Z,84.82
2022-10-08T08:11:09.305Z,83.52
2022-10-08T08:13:39.551Z,81.57
2022-10-08T08:16:20.590Z,80.55
2022-10-08T08:18:49.975Z,79.68
2022-10-08T08:21:19.390Z,79.74
2022-10-08T08:23:52.318Z,76.78
2022-10-08T08:26:28.895Z,78.41
2022-10-08T08:29:01.193Z,76.97
2022-10-08T08:31:31.086Z,77.40
2022-10-08T08:34:00.931Z,76.11
2022-10-08T08:36:31.742Z,74.34
2022-10-08T08:38:58.704Z,75.87
2022-10-08T08:41:49.807Z,73.84
2022-10-08T08:44:16.267Z,73.56
2022-10-08T08:46:46.885Z,73.13
2022-10-08T08:49:25.351Z,73.31
2022-10-08T08:51:53.267Z,72.34
2022-10-08T08:54:20.192Z,72.80
2022-10-08T08:56:47.740Z,73.17
2022-10-08T08:59:32.563Z,73.34
2022-10-08T09:02:03.852Z,73.77
2022-10-08T09:04:41.719Z,73.36
2022-10-08T09:07:22.392Z,72.52
2022-10-08T09:09:53.482Z,73.34
2022-10-08T09:12:31.120Z,72.46
2022-10-08T09:15:00.229Z,71.68
2022-10-08T09:17:32.380Z,70.20
2022-10-08T09:19:59.073Z,69.17
2022-10-08T09:22:28.736Z,69.40
2022-10-08T09:25:00.828Z,68.83
2022-10-08T09:27:48.402Z,68.16
2022-10-08T09:30:35.261Z,68.51
2022-10-08T09:33:16.344Z,67.73
2022-10-08T09:35:51.506Z,66.84
2022-10-08T09:38:23.898Z,67.98
2022-10-08T09:41:01.105Z,67.66
2022-10-08T09:43:27.804Z,67.35
2022-10-08T09:45:54.793Z,67.62
2022-10-08T09:48:28.594Z,66.54
2022-10-08T09:51:02.622Z,66.25
2022-10-08T09:53:34.271Z,65.46
2022-10-08T09:56:03.742Z,65.80
2022-10-08T09:58:33.342Z,65.45
2022-10-08T10:01:06.334Z,63.42
2022-10-08T10:03:35.798Z,64.13
2022-10-08T10:06:02.532Z,63.89
2022-10-08T10:08:54.355Z,62.19
2022-10-08T10:11:36.639Z,62.82
2022-10-08T10:14:13.827Z,62.96
2022-10-08T10:16:44.294Z,63.78
2022-10-08T10:19:21.934Z,64.74
2022-10-08T10:21:54.863Z,64.69
2022-10-08T10:24:35.753Z,62.77
2022-10-08T10:27:16.876Z,63.46
2022-10-08T10:29:59.377Z,63.22
2022-10-08T10:32:36.920Z,63.36
2022-10-08T10:35:28.277Z,64.00
2022-10-08T10:38:05.403Z,60.49
2022-10-08T10:40:42.668Z,61.21
2022-10-08T10:43:33.742Z,59.85
2022-10-08T10:46:19.093Z,58.33
2022-10-08T10:48:45.715Z,58.21
2022-10-08T10:51:33.223Z,58.62
2022-10-08T10:54:06.574Z,58.95
2022-10-08T10:56:42.478Z,60.55
2022-10-08T10:59:21.304Z,59.66
2022-10-08T11:02:00.626Z,59.94
2022-10-08T11:04:29.883Z,60.62
2022-10-08T11:07:03.496Z,60.49
2022-10-08T11:09:51.223Z,60.75
2022-10-08T11:12:57.932Z,60.66
2022-10-08T11:15:52.145Z,61.96
2022-10-08T11:18:25.063Z,63.13
2022-10-08T11:21:05.189Z,63.34
2022-10-08T11:23:58.479Z,63.87
2022-10-08T11:26:36.866Z,64.92
2022-10-08T11:29:19.967Z,67.99
2022-10-08T11:31:49.384Z,70.16
2022-10-08T11:34:29.785Z,71.76
2022-10-08T11:37:20.803Z,73.64
2022-10-08T11:40:20.032Z,75.01
2022-10-08T11:42:58.931Z,75.11
2022-10-08T11:45:30.046Z,75.08
2022-10-08T11:47:59.824Z,75.01
2022-10-08T11:50:37.612Z,74.54
2022-10-08T11:53:10.487Z,74.26
2022-10-08T11:55:38.253Z,74.59
2022-10-08T11:58:22.032Z,74.34
2022-10-08T12:00:49.659Z,73.56
2022-10-08T12:04:17.037Z,73.55
2022-10-08T12:06:47.775Z,73.44
2022-10-08T12:09:25.065Z,74.15
2022-10-08T12:11:56.373Z,73.90
2022-10-08T12:14:23.114Z,73.92
2022-10-08T12:16:55.904Z,75.96
2022-10-08T12:19:34.528Z,76.96
2022-10-08T12:22:01.048Z,77.82
2022-10-08T12:24:39.652Z,77.24
2022-10-08T12:27:18.571Z,76.47
2022-10-08T12:29:58.993Z,77.23
2022-10-08T12:32:28.009Z,76.43
2022-10-08T12:34:55.144Z,75.57
2022-10-08T12:37:34.109Z,75.39
2022-10-08T12:40:07.475Z,74.60
2022-10-08T12:42:38.331Z,75.53
2022-10-08T12:45:15.039Z,74.28
2022-10-08T12:47:56.116Z,73.87
2022-10-08T12:50:37.819Z,73.72
2022-10-08T12:53:06.523Z,73.47
2022-10-08T12:55:46.411Z,72.29
2022-10-08T12:58:17.827Z,71.48
2022-10-08T13:00:52.685Z,72.63
2022-10-08T13:03:20.417Z,71.77
2022-10-08T13:05:48.423Z,71.67
2022-10-08T13:08:27.096Z,69.67
2022-10-08T13:10:53.926Z,70.09
2022-10-08T13:13:45.956Z,68.87
2022-10-08T13:16:18.951Z,70.07
2022-10-08T13:18:52.887Z,69.53
2022-10-08T13:21:28.206Z,70.12
2022-10-08T13:24:21.112Z,70.73
2022-10-08T13:26:52.216Z,69.57
2022-10-08T13:29:21.825Z,67.42
2022-10-08T13:31:56.878Z,67.49
2022-10-08T13:34:31.072Z,67.28
2022-10-08T13:37:00.749Z,67.19
2022-10-08T13:39:34.787Z,67.77
2022-10-08T13:42:05.255Z,67.02
2022-10-08T13:44:33.540Z,66.35
2022-10-08T13:47:03.720Z,66.66
2022-10-08T13:49:32.745Z,65.03
2022-10-08T13:52:00.509Z,65.80
2022-10-08T13:54:30.275Z,65.69
2022-10-08T13:56:57.148Z,66.57
2022-10-08T13:59:28.218Z,67.24
2022-10-08T14:01:56.963Z,68.19
2022-10-08T14:04:23.739Z,68.49
2022-10-08T14:06:53.788Z,68.42
2022-10-08T14:09:24.371Z,67.26
2022-10-08T14:11:56.365Z,67.57
2022-10-08T14:14:24.472Z,66.99
2022-10-08T14:16:51.972Z,66.38
2022-10-08T14:19:20.499Z,66.32
2022-10-08T14:21:50.009Z,66.84
2022-10-08T14:24:19.555Z,66.23
2022-10-08T14:26:46.123Z,66.29
2022-10-08T14:29:12.607Z,65.54
2022-10-08T14:31:39.114Z,65.09
2022-10-08T14:34:05.630Z,63.90
2022-10-08T14:36:36.126Z,64.21
2022-10-08T14:39:04.572Z,62.37
2022-10-08T14:41:32.130Z,62.98
2022-10-08T14:43:58.726Z,63.63
2022-10-08T14:46:25.669Z,62.30
2022-10-08T14:48:52.183Z,62.77
2022-10-08T14:51:18.803Z,61.61
2022-10-08T14:53:45.331Z,62.12
2022-10-08T14:56:12.940Z,61.67
2022-10-08T14:58:40.396Z,61.99
2022-10-08T15:01:07.217Z,62.38
2022-10-08T15:03:34.356Z,61.73
2022-10-08T15:06:01.234Z,60.32
2022-10-08T15:08:28.433Z,60.96
2022-10-08T15:10:55.019Z,61.80
2022-10-08T15:13:21.753Z,63.47
2022-10-08T15:15:48.342Z,63.34
2022-10-08T15:18:14.998Z,64.19
2022-10-08T15:20:41.846Z,65.19
2022-10-08T15:23:10.327Z,65.32
2022-10-08T15:25:39.108Z,65.96
2022-10-08T15:28:05.670Z,65.69
2022-10-08T15:30:32.228Z,66.24
2022-10-08T15:33:03.263Z,64.69
2022-10-08T15:35:34.728Z,65.35
2022-10-08T15:38:01.314Z,66.39
2022-10-08T15:40:30.255Z,67.73
2022-10-08T15:42:56.769Z,67.82
2022-10-08T15:45:23.405Z,68.19
2022-10-08T15:47:50.060Z,68.49
2022-10-08T15:50:16.632Z,69.03
2022-10-08T15:52:46.374Z,68.97
2022-10-08T15:55:13.201Z,69.97
2022-10-08T15:57:39.900Z,69.16
2022-10-08T16:00:07.027Z,69.23
2022-10-08T16:02:35.627Z,69.32
2022-10-08T16:05:02.114Z,69.32
2022-10-08T16:07:34.241Z,74.88
2022-10-08T16:10:13.827Z,84.12
2022-10-08T16:12:40.536Z,87.03
2022-10-08T16:15:07.515Z,89.96
2022-10-08T16:17:34.001Z,91.58
2022-10-08T16:20:00.937Z,92.21
2022-10-08T16:22:27.623Z,92.88
2022-10-08T16:24:54.075Z,93.14
2022-10-08T16:27:20.587Z,93.60
2022-10-08T16:29:47.390Z,94.07
2022-10-08T16:32:14.302Z,94.07
2022-10-08T16:34:44.156Z,94.37
2022-10-08T16:37:11.532Z,94.39
2022-10-08T16:39:38.067Z,95.39
2022-10-08T16:42:04.604Z,94.78
2022-10-08T16:44:31.077Z,95.37
2022-10-08T16:46:57.797Z,95.46
2022-10-08T16:49:26.823Z,95.09
2022-10-08T16:51:55.679Z,94.37
2022-10-08T16:54:22.489Z,94.52
2022-10-08T16:56:49.085Z,93.79
2022-10-08T16:59:19.029Z,93.62
2022-10-08T17:01:47.730Z,93.57
2022-10-08T17:04:15.529Z,94.34
2022-10-08T17:06:42.475Z,93.57
2022-10-08T17:09:09.051Z,93.15
2022-10-08T17:11:36.825Z,93.27
2022-10-08T17:14:04.469Z,93.32
2022-10-08T17:16:31.965Z,93.99
2022-10-08T17:19:00.129Z,94.05
2022-10-08T17:21:27.928Z,94.50
2022-10-08T17:23:57.281Z,94.34
2022-10-08T17:26:25.304Z,94.17
2022-10-08T17:28:52.457Z,94.49
2022-10-08T17:31:24.522Z,94.62
2022-10-08T17:33:51.134Z,94.06
2022-10-08T17:36:23.012Z,93.99
2022-10-08T17:38:52.780Z,94.26
2022-10-08T17:41:25.497Z,93.42
2022-10-08T17:43:53.278Z,93.67
2022-10-08T17:46:23.891Z,93.65
2022-10-08T17:48:50.892Z,93.57
2022-10-08T17:51:20.263Z,93.76
2022-10-08T17:53:58.028Z,93.41
2022-10-08T17:56:25.256Z,94.04
2022-10-08T17:58:52.608Z,93.72
2022-10-08T18:01:33.171Z,93.75
2022-10-08T18:04:06.109Z,93.72
2022-10-08T18:06:34.772Z,93.14
2022-10-08T18:09:05.277Z,93.47
2022-10-08T18:11:34.367Z,93.48
2022-10-08T18:14:05.302Z,93.54
2022-10-08T18:16:32.202Z,94.16
2022-10-08T18:18:58.941Z,94.73
2022-10-08T18:21:26.024Z,95.12
2022-10-08T18:23:52.752Z,95.02
2022-10-08T18:26:22.063Z,95.69
2022-10-08T18:28:51.098Z,95.64
2022-10-08T18:31:18.897Z,95.68
2022-10-08T18:33:58.300Z,96.25
2022-10-08T18:36:31.382Z,96.20
2022-10-08T18:39:00.194Z,95.80
2022-10-08T18:41:32.659Z,95.79
2022-10-08T18:44:00.652Z,95.47
2022-10-08T18:46:28.166Z,95.57
2022-10-08T18:48:55.579Z,95.01
2022-10-08T18:51:27.103Z,95.52
2022-10-08T18:53:55.578Z,95.19
2022-10-08T18:56:29.056Z,95.64
2022-10-08T18:59:01.883Z,96.09
2022-10-08T19:01:40.246Z,95.85
2022-10-08T19:04:08.976Z,95.29
2022-10-08T19:06:38.859Z,95.48
2022-10-08T19:09:06.963Z,95.77
2022-10-08T19:11:44.352Z,95.92
2022-10-08T19:14:13.740Z,95.67
2022-10-08T19:16:40.699Z,95.99
2022-10-08T19:19:29.500Z,96.34
2022-10-08T19:21:56.128Z,96.34
2022-10-08T19:24:24.953Z,96.32
2022-10-08T19:26:52.659Z,96.47
2022-10-08T19:29:21.884Z,96.27
2022-10-08T19:31:50.063Z,96.23
2022-10-08T19:34:20.111Z,96.74
2022-10-08T19:36:47.487Z,96.12
2022-10-08T19:39:19.241Z,96.17
2022-10-08T19:41:46.488Z,96.37
2022-10-08T19:44:13.331Z,95.99
2022-10-08T19:46:39.917Z,96.36
2022-10-08T19:49:06.996Z,96.63
2022-10-08T19:51:34.285Z,96.21
2022-10-08T19:54:01.714Z,96.69
2022-10-08T19:56:29.251Z,96.63
2022-10-08T19:58:56.260Z,96.74
2022-10-08T20:01:29.121Z,96.51
2022-10-08T20:03:57.335Z,96.66
2022-10-08T20:06:26.513Z,97.12
2022-10-08T20:08:54.741Z,96.88
2022-10-08T20:11:22.340Z,96.85
2022-10-08T20:13:50.453Z,96.97
2022-10-08T20:16:20.342Z,96.72
2022-10-08T20:18:51.531Z,96.62
2022-10-08T20:21:19.029Z,97.17
2022-10-08T20:23:45.728Z,97.39
2022-10-08T20:26:25.416Z,97.35
2022-10-08T20:28:54.624Z,96.92
2022-10-08T20:31:24.066Z,97.49
2022-10-08T20:33:59.336Z,97.18
2022-10-08T20:36:26.525Z,96.75
2022-10-08T20:38:53.216Z,96.92
2022-10-08T20:41:20.336Z,96.62
2022-10-08T20:43:47.136Z,96.32
2022-10-08T20:46:15.597Z,96.85
2022-10-08T20:48:44.313Z,97.19
2022-10-08T20:51:20.047Z,97.27
2022-10-08T20:53:48.807Z,97.42
2022-10-08T20:56:15.723Z,97.21
2022-10-08T20:58:42.603Z,97.32
2022-10-08T21:01:14.466Z,97.15
2022-10-08T21:03:45.532Z,97.50
2022-10-08T21:06:18.148Z,97.64
2022-10-08T21:08:47.221Z,97.48
2022-10-08T21:11:17.104Z,97.39
2022-10-08T21:13:44.652Z,97.34
2022-10-08T21:16:20.562Z,97.19
2022-10-08T21:18:52.095Z,97.37
2022-10-08T21:21:19.705Z,97.25
2022-10-08T21:23:48.965Z,96.94
2022-10-08T21:26:18.048Z,97.41
2022-10-08T21:28:46.519Z,97.27
2022-10-08T21:31:14.723Z,97.79
2022-10-08T21:33:44.227Z,97.72
2022-10-08T21:36:13.700Z,97.74
2022-10-08T21:38:40.280Z,97.94
2022-10-08T21:41:12.700Z,97.77
2022-10-08T21:43:47.908Z,98.27
2022-10-08T21:46:20.099Z,98.01
2022-10-08T21:48:47.427Z,97.97
2022-10-08T21:51:20.301Z,98.07
2022-10-08T21:53:55.052Z,97.62
2022-10-08T21:56:25.368Z,97.76
2022-10-08T21:58:58.212Z,97.75
2022-10-08T22:01:30.968Z,97.42
2022-10-08T22:04:05.046Z,97.32
2022-10-08T22:06:33.111Z,97.37
2022-10-08T22:09:00.292Z,97.47
2022-10-08T22:11:27.345Z,97.74
2022-10-08T22:13:53.927Z,97.98
2022-10-08T22:16:22.826Z,97.87
2022-10-08T22:18:49.560Z,98.17
2022-10-08T22:21:22.075Z,97.83
2022-10-08T22:23:50.941Z,97.89
2022-10-08T22:26:20.224Z,97.86
2022-10-08T22:28:47.218Z,97.20
2022-10-08T22:31:16.250Z,97.59
2022-10-08T22:33:43.440Z,97.87
2022-10-08T22:36:13.124Z,97.66
2022-10-08T22:38:41.528Z,98.09
2022-10-08T22:41:12.017Z,97.57
2022-10-08T22:43:40.373Z,97.58
2022-10-08T22:46:09.958Z,97.19
2022-10-08T22:48:37.175Z,97.42
2022-10-08T22:51:29.958Z,97.49
2022-10-08T22:53:56.940Z,97.32
2022-10-08T22:56:26.543Z,97.35
2022-10-08T22:58:53.355Z,97.35
2022-10-08T23:01:22.789Z,97.58
2022-10-08T23:03:49.557Z,97.52
2022-10-08T23:06:24.540Z,97.50
2022-10-08T23:08:57.117Z,97.42
2022-10-08T23:11:24.631Z,97.41
2022-10-08T23:13:56.346Z,96.85
2022-10-08T23:16:24.449Z,96.96
2022-10-08T23:19:06.040Z,96.99
2022-10-08T23:21:33.445Z,96.40
2022-10-08T23:24:00.083Z,96.90
2022-10-08T23:26:27.532Z,97.14
2022-10-08T23:28:59.497Z,96.79
2022-10-08T23:31:31.633Z,96.69
2022-10-08T23:33:58.586Z,96.59
2022-10-08T23:36:45.705Z,96.82
2022-10-08T23:39:14.857Z,96.75
2022-10-08T23:41:41.704Z,96.64
2022-10-08T23:44:09.007Z,96.70
2022-10-08T23:46:35.505Z,96.69
2022-10-08T23:49:02.070Z,97.26
2022-10-08T23:51:29.475Z,97.13
2022-10-08T23:53:55.925Z,97.34
2022-10-08T23:56:22.700Z,97.39
2022-10-08T23:58:49.812Z,97.03
